Time;durP1;ratioP1;P1;durP2;ratioP2;P2;SDS_P1;SDS_P2;PMS_P1;PMS_P2;Temp;Humidity;BMP_temperature;BMP_pressure;BME280_temperature;BME280_humidity;BME280_pressure;Samples;Min_cycle;Max_cycle;Signal;HPM_P1;HPM_P2
2022/10/20 00:00:02;;;;;;;;;;;8.00;99.90;;;;;;5114236;28;19999;-69
2022/10/20 00:02:28;;;;;;;;;;;7.90;99.90;;;;;;5095183;28;19916;-70
2022/10/20 00:04:53;;;;;;;;;;;9.10;99.90;;;;;;5095164;28;20010;-70
2022/10/20 00:07:19;;;;;;;;;;;7.80;99.90;;;;;;5117127;27;19924;-70
2022/10/20 00:09:44;;;;;;;;;;;7.80;99.90;;;;;;5117542;27;19920;-70
2022/10/20 00:12:10;;;;;;;;;;;7.70;99.90;;;;;;5095255;28;19970;-69
2022/10/20 00:14:35;;;;;;;;;;;7.70;99.90;;;;;;5095568;28;20297;-70
2022/10/20 00:17:01;;;;;;;;;;;7.70;99.90;;;;;;5095444;28;20002;-69
2022/10/20 00:19:27;;;;;;;;;;;7.70;99.90;;;;;;5108667;28;19919;-70
2022/10/20 00:21:52;;;;;;;;;;;7.60;99.90;;;;;;5113913;27;20286;-70
2022/10/20 00:24:20;;;;;;;;;;;7.60;99.90;;;;;;5094934;28;19920;-69
2022/10/20 00:26:46;;;;;;;;;;;7.60;99.90;;;;;;5113618;28;20401;-69
2022/10/20 00:29:11;;;;;;;;;;;7.50;99.90;;;;;;5113659;28;19920;-70
2022/10/20 00:31:37;;;;;;;;;;;7.50;99.90;;;;;;5112657;28;19924;-70
2022/10/20 00:34:02;;;;;;;;;;;7.50;99.90;;;;;;5095051;28;20306;-69
2022/10/20 00:36:28;;;;;;;;;;;7.50;99.90;;;;;;5111925;28;19926;-70
2022/10/20 00:39:00;;;;;;;;;;;7.50;99.90;;;;;;5112362;27;19996;-70
2022/10/20 00:41:25;;;;;;;;;;;7.40;99.90;;;;;;5109288;28;20390;-69
2022/10/20 00:43:52;;;;;;;;;;;7.70;99.90;;;;;;5095124;28;19927;-69
2022/10/20 00:46:19;;;;;;;;;;;7.40;99.90;;;;;;5093871;28;20370;-70
2022/10/20 00:48:47;;;;;;;;;;;7.40;99.90;;;;;;5116033;27;19924;-70
2022/10/20 00:51:14;;;;;;;;;;;7.30;99.90;;;;;;5113244;28;19926;-70
2022/10/20 00:53:41;;;;;;;;;;;7.30;99.90;;;;;;5094281;28;19926;-70
2022/10/20 00:56:07;;;;;;;;;;;7.30;99.90;;;;;;5094774;28;19988;-70
2022/10/20 00:58:33;;;;;;;;;;;7.30;99.90;;;;;;5095041;28;20363;-70
2022/10/20 01:00:59;;;;;;;;;;;7.20;99.90;;;;;;5112278;28;20299;-70
2022/10/20 01:03:33;;;;;;;;;;;7.20;99.90;;;;;;5112650;28;19919;-69
2022/10/20 01:05:59;;;;;;;;;;;7.20;99.90;;;;;;5094854;28;19927;-69
2022/10/20 01:08:24;;;;;;;;;;;7.30;99.90;;;;;;5095247;28;19920;-69
2022/10/20 01:10:50;;;;;;;;;;;7.10;99.90;;;;;;5095655;28;20378;-69
2022/10/20 01:13:35;;;;;;;;;;;7.10;99.90;;;;;;5095088;28;20430;-69
2022/10/20 01:16:05;;;;;;;;;;;7.20;99.90;;;;;;5091105;28;19928;-69
2022/10/20 01:18:40;;;;;;;;;;;7.10;99.90;;;;;;5094244;28;19920;-69
2022/10/20 01:21:15;;;;;;;;;;;7.10;99.90;;;;;;5093979;28;19916;-70
2022/10/20 01:23:50;;;;;;;;;;;7.10;99.90;;;;;;5096450;27;19934;-69
2022/10/20 01:26:34;;;;;;;;;;;7.10;99.90;;;;;;5112792;28;19927;-70
2022/10/20 01:29:01;;;;;;;;;;;7.10;99.90;;;;;;5091542;28;19926;-69
2022/10/20 01:31:36;;;;;;;;;;;7.30;99.90;;;;;;5094490;28;20271;-70
2022/10/20 01:34:21;;;;;;;;;;;7.10;99.90;;;;;;5094503;28;19919;-70
2022/10/20 01:36:55;;;;;;;;;;;7.10;99.90;;;;;;5106771;28;20295;-69
2022/10/20 01:39:25;;;;;;;;;;;7.00;99.90;;;;;;5090829;28;19973;-70
2022/10/20 01:42:02;;;;;;;;;;;7.00;99.90;;;;;;5111853;28;19995;-70
2022/10/20 01:44:32;;;;;;;;;;;7.00;99.90;;;;;;5112137;28;20015;-70
2022/10/20 01:46:59;;;;;;;;;;;7.00;99.90;;;;;;5111988;28;19916;-70
2022/10/20 01:49:31;;;;;;;;;;;6.90;99.90;;;;;;5113002;28;20412;-70
2022/10/20 01:52:02;;;;;;;;;;;6.90;99.90;;;;;;5113486;28;19919;-70
2022/10/20 01:54:29;;;;;;;;;;;6.90;99.90;;;;;;5094002;28;19973;-70
2022/10/20 01:57:13;;;;;;;;;;;6.90;99.90;;;;;;5093083;28;19926;-70
2022/10/20 01:59:44;;;;;;;;;;;6.80;99.90;;;;;;5093472;28;19920;-70
2022/10/20 02:02:22;;;;;;;;;;;6.90;99.90;;;;;;5107739;28;19924;-70
2022/10/20 02:04:47;;;;;;;;;;;6.80;99.90;;;;;;5090091;28;19923;-70
2022/10/20 02:07:20;;;;;;;;;;;7.20;99.90;;;;;;5094112;28;19920;-70
2022/10/20 02:09:50;;;;;;;;;;;6.80;99.90;;;;;;5113241;28;19971;-70
2022/10/20 02:12:26;;;;;;;;;;;6.80;99.90;;;;;;5093801;28;19965;-70
2022/10/20 02:14:53;;;;;;;;;;;6.80;99.90;;;;;;5112141;28;19919;-70
2022/10/20 02:17:19;;;;;;;;;;;6.80;99.90;;;;;;5110729;28;19920;-70
2022/10/20 02:19:45;;;;;;;;;;;6.70;99.90;;;;;;5112136;28;20402;-69
2022/10/20 02:22:12;;;;;;;;;;;6.70;99.90;;;;;;5093872;28;19919;-69
2022/10/20 02:24:38;;;;;;;;;;;6.70;99.90;;;;;;5107379;28;20018;-70
2022/10/20 02:27:12;;;;;;;;;;;6.70;99.90;;;;;;5112471;28;19923;-69
2022/10/20 02:29:40;;;;;;;;;;;6.60;99.90;;;;;;5089944;28;19923;-69
2022/10/20 02:32:06;;;;;;;;;;;6.70;99.90;;;;;;5107096;28;19924;-70
2022/10/20 02:34:32;;;;;;;;;;;6.60;99.90;;;;;;5111543;28;20072;-70
2022/10/20 02:36:57;;;;;;;;;;;6.70;99.90;;;;;;5111715;28;20418;-70
2022/10/20 02:39:26;;;;;;;;;;;6.60;99.90;;;;;;5110984;28;19984;-70
2022/10/20 02:41:54;;;;;;;;;;;6.60;99.90;;;;;;5095639;28;20006;-70
2022/10/20 02:44:21;;;;;;;;;;;6.60;99.90;;;;;;5112033;28;20034;-69
2022/10/20 02:46:47;;;;;;;;;;;6.80;99.90;;;;;;5110907;28;19920;-69
2022/10/20 02:49:12;;;;;;;;;;;6.60;99.90;;;;;;5111954;28;19920;-69
2022/10/20 02:51:38;;;;;;;;;;;6.50;99.90;;;;;;5111446;28;19920;-69
2022/10/20 02:54:04;;;;;;;;;;;6.50;99.90;;;;;;5111539;28;20002;-70
2022/10/20 02:56:32;;;;;;;;;;;6.50;99.90;;;;;;5111252;28;20345;-70
2022/10/20 02:58:58;;;;;;;;;;;6.50;99.90;;;;;;5095318;28;19919;-69
2022/10/20 03:01:24;;;;;;;;;;;6.60;99.90;;;;;;5114739;27;19945;-69
2022/10/20 03:03:49;;;;;;;;;;;6.50;99.90;;;;;;5115683;28;19920;-70
2022/10/20 03:06:15;;;;;;;;;;;6.50;99.90;;;;;;5114540;28;19928;-69
2022/10/20 03:08:41;;;;;;;;;;;6.50;99.90;;;;;;5115067;28;19920;-69
2022/10/20 03:11:07;;;;;;;;;;;6.50;99.90;;;;;;5099665;27;19949;-70
2022/10/20 03:13:33;;;;;;;;;;;6.50;99.90;;;;;;5115378;27;19927;-70
2022/10/20 03:15:59;;;;;;;;;;;6.50;99.90;;;;;;5115295;28;20291;-70
2022/10/20 03:18:24;;;;;;;;;;;6.50;99.90;;;;;;5114929;28;20010;-69
2022/10/20 03:20:50;;;;;;;;;;;6.60;99.90;;;;;;5114265;28;19961;-70
2022/10/20 03:23:16;;;;;;;;;;;6.50;99.90;;;;;;5115344;28;20324;-71
2022/10/20 03:25:41;;;;;;;;;;;6.50;99.90;;;;;;5097197;28;20007;-70
2022/10/20 03:28:07;;;;;;;;;;;6.50;99.90;;;;;;5117494;27;20393;-70
2022/10/20 03:30:32;;;;;;;;;;;6.50;99.90;;;;;;5096046;28;19920;-70
2022/10/20 03:32:58;;;;;;;;;;;6.50;99.90;;;;;;5114379;28;19920;-69
2022/10/20 03:35:24;;;;;;;;;;;6.50;99.90;;;;;;5112335;28;19919;-71
2022/10/20 03:37:52;;;;;;;;;;;6.50;99.90;;;;;;5114005;28;20016;-69
2022/10/20 03:40:18;;;;;;;;;;;6.50;99.90;;;;;;5113982;28;19982;-71
2022/10/20 03:42:43;;;;;;;;;;;6.60;99.90;;;;;;5095875;28;20295;-70
2022/10/20 03:45:11;;;;;;;;;;;6.50;99.90;;;;;;5114697;28;19920;-69
2022/10/20 03:47:37;;;;;;;;;;;6.50;99.90;;;;;;5114082;28;19968;-70
2022/10/20 03:50:03;;;;;;;;;;;6.50;99.90;;;;;;5095451;28;19919;-70
2022/10/20 03:52:31;;;;;;;;;;;6.60;99.90;;;;;;5113887;27;19924;-70
2022/10/20 03:54:56;;;;;;;;;;;6.50;99.90;;;;;;5095955;28;19968;-70
2022/10/20 03:57:22;;;;;;;;;;;6.60;99.90;;;;;;5094615;28;19972;-69
2022/10/20 03:59:47;;;;;;;;;;;6.60;99.90;;;;;;5096238;28;19919;-68
2022/10/20 04:02:31;;;;;;;;;;;6.60;99.90;;;;;;5093647;28;19916;-67
2022/10/20 04:04:57;;;;;;;;;;;6.60;99.90;;;;;;5094723;28;19981;-70
2022/10/20 04:07:23;;;;;;;;;;;6.60;99.90;;;;;;5111878;28;20374;-69
2022/10/20 04:09:48;;;;;;;;;;;6.60;99.90;;;;;;5090961;28;19924;-69
2022/10/20 04:12:14;;;;;;;;;;;6.60;99.90;;;;;;5113684;28;20422;-70
2022/10/20 04:14:40;;;;;;;;;;;6.60;99.90;;;;;;5112583;27;19972;-70
2022/10/20 04:17:05;;;;;;;;;;;6.60;99.90;;;;;;5112301;28;20272;-69
2022/10/20 04:19:31;;;;;;;;;;;7.00;99.90;;;;;;5095285;28;19927;-69
2022/10/20 04:21:56;;;;;;;;;;;6.60;99.90;;;;;;5095516;28;20002;-70
2022/10/20 04:24:22;;;;;;;;;;;6.60;99.90;;;;;;5094384;28;20004;-69
2022/10/20 04:26:47;;;;;;;;;;;6.60;99.90;;;;;;5095519;28;20376;-68
2022/10/20 04:29:13;;;;;;;;;;;6.60;99.90;;;;;;5094969;28;19960;-68
2022/10/20 04:31:38;;;;;;;;;;;6.70;99.90;;;;;;5112196;28;20410;-69
2022/10/20 04:34:04;;;;;;;;;;;6.60;99.90;;;;;;5095001;28;19920;-69
2022/10/20 04:36:29;;;;;;;;;;;6.60;99.90;;;;;;5112219;28;19920;-69
2022/10/20 04:38:55;;;;;;;;;;;6.60;99.90;;;;;;5112537;28;20013;-70
2022/10/20 04:41:20;;;;;;;;;;;6.60;99.90;;;;;;5093420;28;20324;-69
2022/10/20 04:43:51;;;;;;;;;;;6.60;99.90;;;;;;5116032;27;20393;-69
2022/10/20 04:46:16;;;;;;;;;;;6.60;99.90;;;;;;5107767;28;19927;-69
2022/10/20 04:48:43;;;;;;;;;;;6.60;99.90;;;;;;5109642;28;20286;-69
2022/10/20 04:51:10;;;;;;;;;;;6.60;99.90;;;;;;5094001;28;19973;-69
2022/10/20 04:53:36;;;;;;;;;;;6.60;99.90;;;;;;5111681;28;19934;-69
2022/10/20 04:56:02;;;;;;;;;;;6.60;99.90;;;;;;5113016;28;20305;-69
2022/10/20 04:58:27;;;;;;;;;;;6.60;99.90;;;;;;5112664;28;20367;-70
2022/10/20 05:00:56;;;;;;;;;;;6.50;99.90;;;;;;5094030;28;19926;-69
2022/10/20 05:03:21;;;;;;;;;;;6.50;99.90;;;;;;5112829;27;19915;-69
2022/10/20 05:05:47;;;;;;;;;;;6.50;99.90;;;;;;5112546;28;19926;-69
2022/10/20 05:08:16;;;;;;;;;;;6.50;99.90;;;;;;5112966;28;19925;-70
2022/10/20 05:10:42;;;;;;;;;;;6.50;99.90;;;;;;5094778;28;20355;-70
2022/10/20 05:13:08;;;;;;;;;;;6.50;99.90;;;;;;5093950;28;20279;-70
2022/10/20 05:15:33;;;;;;;;;;;6.90;99.90;;;;;;5117925;27;19927;-70
2022/10/20 05:17:59;;;;;;;;;;;6.50;99.90;;;;;;5095529;28;19927;-70
2022/10/20 05:20:24;;;;;;;;;;;6.50;99.90;;;;;;5111751;28;19923;-70
2022/10/20 05:22:50;;;;;;;;;;;6.40;99.90;;;;;;5094544;28;19916;-70
2022/10/20 05:25:15;;;;;;;;;;;6.50;99.90;;;;;;5094388;28;20039;-68
2022/10/20 05:27:41;;;;;;;;;;;6.40;99.90;;;;;;5093536;28;19920;-70
2022/10/20 05:30:07;;;;;;;;;;;6.40;99.90;;;;;;5112934;27;20272;-69
2022/10/20 05:32:32;;;;;;;;;;;6.40;99.90;;;;;;5112491;28;20268;-69
2022/10/20 05:34:58;;;;;;;;;;;6.40;99.90;;;;;;5093411;28;19964;-69
2022/10/20 05:37:23;;;;;;;;;;;6.40;99.90;;;;;;5112682;28;20275;-70
2022/10/20 05:39:49;;;;;;;;;;;6.40;99.90;;;;;;5094175;28;19927;-69
2022/10/20 05:42:14;;;;;;;;;;;6.40;99.90;;;;;;5093732;28;19981;-70
2022/10/20 05:44:42;;;;;;;;;;;6.40;99.90;;;;;;5113611;28;20417;-69
2022/10/20 05:47:11;;;;;;;;;;;6.30;99.90;;;;;;5094389;28;19920;-69
2022/10/20 05:49:36;;;;;;;;;;;6.40;99.90;;;;;;5093391;28;20426;-69
2022/10/20 05:52:02;;;;;;;;;;;6.40;99.90;;;;;;5112534;28;19920;-69
2022/10/20 05:54:27;;;;;;;;;;;6.40;99.90;;;;;;5095654;28;19919;-70
2022/10/20 05:56:53;;;;;;;;;;;6.40;99.90;;;;;;5112472;28;19927;-69
2022/10/20 05:59:18;;;;;;;;;;;6.40;99.90;;;;;;5111996;28;19920;-69
2022/10/20 06:01:47;;;;;;;;;;;6.40;99.90;;;;;;5112480;28;19930;-69
2022/10/20 06:04:17;;;;;;;;;;;6.40;99.90;;;;;;5111311;28;19920;-69
2022/10/20 06:06:43;;;;;;;;;;;6.40;99.90;;;;;;5093917;28;19926;-69
2022/10/20 06:09:09;;;;;;;;;;;6.40;99.90;;;;;;5111329;28;20823;-70
2022/10/20 06:11:35;;;;;;;;;;;6.50;99.90;;;;;;5111953;28;19920;-69
2022/10/20 06:14:01;;;;;;;;;;;7.80;99.90;;;;;;5094077;28;19927;-69
2022/10/20 06:16:31;;;;;;;;;;;6.50;99.90;;;;;;5106726;28;20264;-69
2022/10/20 06:18:57;;;;;;;;;;;6.50;99.90;;;;;;5093669;28;20427;-70
2022/10/20 06:21:23;;;;;;;;;;;6.50;99.90;;;;;;5111930;28;20006;-70
2022/10/20 06:23:49;;;;;;;;;;;6.60;99.90;;;;;;5111211;28;19927;-69
2022/10/20 06:26:16;;;;;;;;;;;6.50;99.90;;;;;;5111708;28;19924;-69
2022/10/20 06:28:42;;;;;;;;;;;6.50;99.90;;;;;;5112149;28;19920;-69
2022/10/20 06:31:12;;;;;;;;;;;6.50;99.90;;;;;;5111241;28;19926;-69
2022/10/20 06:33:38;;;;;;;;;;;6.60;99.90;;;;;;5094801;28;19923;-69
2022/10/20 06:36:03;;;;;;;;;;;6.80;99.90;;;;;;5097133;28;19972;-69
2022/10/20 06:38:29;;;;;;;;;;;6.60;99.90;;;;;;5096749;28;19920;-70
2022/10/20 06:40:54;;;;;;;;;;;6.60;99.90;;;;;;5115426;28;19919;-69
2022/10/20 06:43:22;;;;;;;;;;;6.60;99.90;;;;;;5115670;28;19920;-69
2022/10/20 06:45:55;;;;;;;;;;;6.60;99.90;;;;;;5114728;27;19927;-70
2022/10/20 06:48:21;;;;;;;;;;;6.70;99.90;;;;;;5097223;28;19962;-69
2022/10/20 06:50:46;;;;;;;;;;;6.70;99.90;;;;;;5115753;28;20336;-69
2022/10/20 06:53:12;;;;;;;;;;;6.70;99.90;;;;;;5114776;28;19963;-70
2022/10/20 06:55:37;;;;;;;;;;;6.70;99.90;;;;;;5096620;28;19920;-70
2022/10/20 06:58:03;;;;;;;;;;;6.80;99.90;;;;;;5097167;28;19974;-70
2022/10/20 07:00:28;;;;;;;;;;;6.80;99.90;;;;;;5114082;28;19919;-71
2022/10/20 07:02:54;;;;;;;;;;;6.80;99.90;;;;;;5115759;28;19920;-71
2022/10/20 07:05:22;;;;;;;;;;;6.90;99.90;;;;;;5091965;28;19920;-71
2022/10/20 07:07:51;;;;;;;;;;;6.90;99.90;;;;;;5118784;27;19967;-70
2022/10/20 07:10:16;;;;;;;;;;;7.00;99.90;;;;;;5115305;28;19920;-72
2022/10/20 07:12:42;;;;;;;;;;;7.00;99.90;;;;;;5114313;28;20371;-70
2022/10/20 07:15:10;;;;;;;;;;;7.10;99.90;;;;;;5096893;28;20053;-69
2022/10/20 07:17:36;;;;;;;;;;;7.10;99.90;;;;;;5099010;27;20530;-71
2022/10/20 07:20:01;;;;;;;;;;;7.10;99.90;;;;;;5098362;28;20305;-70
2022/10/20 07:22:27;;;;;;;;;;;7.20;99.90;;;;;;5096602;28;19924;-70
2022/10/20 07:24:53;;;;;;;;;;;7.20;99.90;;;;;;5114716;28;20397;-70
2022/10/20 07:27:18;;;;;;;;;;;8.50;99.90;;;;;;5094880;28;19919;-70
2022/10/20 07:29:44;;;;;;;;;;;7.30;99.90;;;;;;5114702;28;20371;-70
2022/10/20 07:32:10;;;;;;;;;;;7.40;99.90;;;;;;5096636;28;19927;-71
2022/10/20 07:34:35;;;;;;;;;;;7.50;99.90;;;;;;5095088;28;19923;-70
2022/10/20 07:37:01;;;;;;;;;;;7.50;99.90;;;;;;5114111;28;19919;-69
2022/10/20 07:39:26;;;;;;;;;;;7.60;99.90;;;;;;5096043;28;19924;-71
2022/10/20 07:41:52;;;;;;;;;;;7.60;99.90;;;;;;5114080;28;20448;-71
2022/10/20 07:44:18;;;;;;;;;;;7.80;99.90;;;;;;5095701;28;20283;-71
2022/10/20 07:46:43;;;;;;;;;;;8.10;99.90;;;;;;5096604;27;19942;-71
2022/10/20 07:49:09;;;;;;;;;;;8.00;99.90;;;;;;5095709;28;19926;-71
2022/10/20 07:51:37;;;;;;;;;;;8.00;99.90;;;;;;5114100;28;19926;-70
2022/10/20 07:54:05;;;;;;;;;;;8.10;99.90;;;;;;5095949;28;20010;-70
2022/10/20 07:56:35;;;;;;;;;;;8.10;99.90;;;;;;5113260;28;19971;-71
2022/10/20 07:59:00;;;;;;;;;;;8.20;99.90;;;;;;5115189;28;19927;-71
2022/10/20 08:01:26;;;;;;;;;;;8.40;99.90;;;;;;5095744;27;19920;-70
2022/10/20 08:03:52;;;;;;;;;;;8.50;99.90;;;;;;5113587;28;20013;-70
2022/10/20 08:06:17;;;;;;;;;;;8.70;99.90;;;;;;5095085;28;19927;-72
2022/10/20 08:08:43;;;;;;;;;;;8.70;99.90;;;;;;5113724;27;20006;-71
2022/10/20 08:11:09;;;;;;;;;;;9.00;99.90;;;;;;5092015;28;20367;-70
2022/10/20 08:13:34;;;;;;;;;;;8.70;99.90;;;;;;5114097;28;20048;-72
2022/10/20 08:16:00;;;;;;;;;;;8.80;99.90;;;;;;5113438;28;19926;-71
2022/10/20 08:18:25;;;;;;;;;;;8.80;99.90;;;;;;5096974;28;19930;-71
2022/10/20 08:20:51;;;;;;;;;;;8.70;99.90;;;;;;5113518;27;19926;-71
2022/10/20 08:23:16;;;;;;;;;;;8.70;99.90;;;;;;5094573;28;19920;-71
2022/10/20 08:25:42;;;;;;;;;;;8.70;99.90;;;;;;5113811;28;19920;-71
2022/10/20 08:28:08;;;;;;;;;;;8.70;99.90;;;;;;5095787;28;20363;-71
2022/10/20 08:30:33;;;;;;;;;;;8.80;99.90;;;;;;5094193;28;19926;-71
2022/10/20 08:32:59;;;;;;;;;;;8.80;99.90;;;;;;5116274;27;19950;-71
2022/10/20 08:35:25;;;;;;;;;;;8.90;99.90;;;;;;5094335;28;19927;-72
2022/10/20 08:37:50;;;;;;;;;;;9.00;99.90;;;;;;5094280;28;19919;-71
2022/10/20 08:40:18;;;;;;;;;;;9.40;99.90;;;;;;5113789;28;19930;-72
2022/10/20 08:42:46;;;;;;;;;;;9.40;99.90;;;;;;5112818;28;20974;-72
2022/10/20 08:45:17;;;;;;;;;;;9.70;99.90;;;;;;5112728;28;19927;-71
2022/10/20 08:47:43;;;;;;;;;;;10.00;99.90;;;;;;5113165;28;20827;-71
2022/10/20 08:50:10;;;;;;;;;;;10.50;99.90;;;;;;5095072;28;19964;-71
2022/10/20 08:52:38;;;;;;;;;;;11.20;99.90;;;;;;5093994;28;19923;-72
2022/10/20 08:55:04;;;;;;;;;;;11.70;99.90;;;;;;5094972;28;20280;-72
2022/10/20 08:57:34;;;;;;;;;;;12.30;99.90;;;;;;5093598;28;19920;-72
2022/10/20 09:00:15;;;;;;;;;;;12.80;99.90;;;;;;5093895;28;20283;-72
2022/10/20 09:02:40;;;;;;;;;;;13.10;99.90;;;;;;5091747;27;20650;-74
2022/10/20 09:05:07;;;;;;;;;;;13.60;99.90;;;;;;5095759;28;19980;-73
2022/10/20 09:07:34;;;;;;;;;;;13.70;99.90;;;;;;5112756;28;19927;-73
2022/10/20 09:10:03;;;;;;;;;;;13.80;99.90;;;;;;5116116;27;19927;-74
2022/10/20 09:12:29;;;;;;;;;;;14.10;99.90;;;;;;5107587;28;19966;-77
2022/10/20 09:14:56;;;;;;;;;;;13.60;99.90;;;;;;5115893;27;20434;-74
2022/10/20 09:17:21;;;;;;;;;;;13.10;99.90;;;;;;5093379;28;19924;-73
2022/10/20 09:19:50;;;;;;;;;;;13.00;99.90;;;;;;5094144;28;20264;-73
2022/10/20 09:22:18;;;;;;;;;;;13.00;99.90;;;;;;5112043;28;19931;-73
2022/10/20 09:24:45;;;;;;;;;;;13.00;99.90;;;;;;5113043;27;19928;-72
2022/10/20 09:27:19;;;;;;;;;;;12.80;99.90;;;;;;5111969;28;19923;-72
2022/10/20 09:29:45;;;;;;;;;;;12.60;99.90;;;;;;5112159;28;19920;-71
2022/10/20 09:32:28;;;;;;;;;;;12.70;99.90;;;;;;5112728;28;19923;-72
2022/10/20 09:35:26;;;;;;;;;;;13.40;99.90;;;;;;5089607;28;19920;-71
2022/10/20 09:38:03;;;;;;;;;;;14.10;99.90;;;;;;5094935;28;19927;-72
2022/10/20 09:40:29;;;;;;;;;;;14.90;99.90;;;;;;5090099;28;20004;-74
2022/10/20 09:43:18;;;;;;;;;;;15.30;99.90;;;;;;5094254;28;20299;-72
2022/10/20 09:46:02;;;;;;;;;;;15.60;99.90;;;;;;5095724;27;19973;-71
2022/10/20 09:48:31;;;;;;;;;;;16.10;99.90;;;;;;5089211;28;19927;-71
2022/10/20 09:51:01;;;;;;;;;;;16.30;99.60;;;;;;5112694;28;19923;-72
2022/10/20 09:53:28;;;;;;;;;;;16.30;99.50;;;;;;5093668;28;20280;-72
2022/10/20 09:55:54;;;;;;;;;;;16.40;98.60;;;;;;5114417;28;19924;-72
2022/10/20 09:58:36;;;;;;;;;;;16.10;98.80;;;;;;5107915;28;19926;-72
2022/10/20 10:01:13;;;;;;;;;;;16.00;98.70;;;;;;5109644;28;20367;-73
2022/10/20 10:03:39;;;;;;;;;;;15.60;99.30;;;;;;5112485;28;19977;-72
2022/10/20 10:06:19;;;;;;;;;;;15.50;99.90;;;;;;5112694;28;19919;-71
2022/10/20 10:08:45;;;;;;;;;;;15.50;99.90;;;;;;5096917;28;19926;-71
2022/10/20 10:11:15;;;;;;;;;;;15.30;99.90;;;;;;5116402;27;19923;-72
2022/10/20 10:13:43;;;;;;;;;;;15.00;99.90;;;;;;5116712;28;19920;-71
2022/10/20 10:16:10;;;;;;;;;;;14.60;99.90;;;;;;5098902;27;19919;-72
2022/10/20 10:18:37;;;;;;;;;;;14.30;99.90;;;;;;5115160;28;19923;-75
2022/10/20 10:21:07;;;;;;;;;;;14.30;99.90;;;;;;5116110;28;19975;-72
2022/10/20 10:23:35;;;;;;;;;;;14.20;99.90;;;;;;5114554;28;20354;-78
2022/10/20 10:26:01;;;;;;;;;;;14.00;99.90;;;;;;5099261;27;19976;-72
2022/10/20 10:28:37;;;;;;;;;;;14.10;99.90;;;;;;5090107;28;19920;-74
2022/10/20 10:31:12;;;;;;;;;;;14.30;99.90;;;;;;5119534;27;19919;-71
2022/10/20 10:33:38;;;;;;;;;;;14.70;99.90;;;;;;5096306;28;19959;-73
2022/10/20 10:36:06;;;;;;;;;;;14.80;99.90;;;;;;5096386;28;20354;-80
2022/10/20 10:38:32;;;;;;;;;;;15.00;99.90;;;;;;5113941;28;20285;-73
2022/10/20 10:41:16;;;;;;;;;;;15.20;99.90;;;;;;5097074;27;19919;-77
2022/10/20 10:43:54;;;;;;;;;;;15.30;99.90;;;;;;5097154;28;20459;-77
2022/10/20 10:46:25;;;;;;;;;;;15.30;99.90;;;;;;5112099;28;19920;-71
2022/10/20 10:48:56;;;;;;;;;;;15.20;99.90;;;;;;5115714;28;19926;-71
2022/10/20 10:51:42;;;;;;;;;;;15.00;99.90;;;;;;5114512;28;19920;-72
2022/10/20 10:54:19;;;;;;;;;;;14.60;99.90;;;;;;5056718;28;19973;-72
2022/10/20 10:56:47;;;;;;;;;;;14.60;99.90;;;;;;5093412;28;19920;-71
2022/10/20 10:59:19;;;;;;;;;;;14.40;99.90;;;;;;5091544;28;19919;-74
2022/10/20 11:01:47;;;;;;;;;;;14.40;99.90;;;;;;5090529;28;19928;-74
2022/10/20 11:04:28;;;;;;;;;;;14.20;99.90;;;;;;5110870;28;19920;-74
2022/10/20 11:07:01;;;;;;;;;;;14.00;99.90;;;;;;5115766;27;20002;-75
2022/10/20 11:09:32;;;;;;;;;;;14.10;99.90;;;;;;5092932;28;19959;-75
2022/10/20 11:12:16;;;;;;;;;;;14.00;99.90;;;;;;5112441;28;20019;-73
2022/10/20 11:14:48;;;;;;;;;;;13.80;99.90;;;;;;5094988;28;19920;-75
2022/10/20 11:17:26;;;;;;;;;;;13.60;99.90;;;;;;5092681;28;20355;-74
2022/10/20 11:20:18;;;;;;;;;;;13.60;99.90;;;;;;5094703;28;20388;-73
2022/10/20 11:22:52;;;;;;;;;;;13.60;99.90;;;;;;5113905;28;19919;-74
2022/10/20 11:25:20;;;;;;;;;;;13.40;99.90;;;;;;5113636;28;20256;-79
2022/10/20 11:27:46;;;;;;;;;;;13.50;99.90;;;;;;5113368;27;19938;-76
2022/10/20 11:30:20;;;;;;;;;;;13.40;99.90;;;;;;5114501;28;20283;-74
2022/10/20 11:32:48;;;;;;;;;;;13.20;99.90;;;;;;5113734;28;19923;-72
2022/10/20 11:35:33;;;;;;;;;;;13.10;99.90;;;;;;5095460;28;20271;-72
2022/10/20 11:38:15;;;;;;;;;;;13.10;99.90;;;;;;5095657;28;19931;-73
2022/10/20 11:40:51;;;;;;;;;;;13.00;99.90;;;;;;5106576;28;19927;-72
2022/10/20 11:43:23;;;;;;;;;;;12.90;99.90;;;;;;5097007;28;19973;-73
2022/10/20 11:45:48;;;;;;;;;;;13.00;99.90;;;;;;5114214;28;20282;-71
2022/10/20 11:48:17;;;;;;;;;;;13.00;99.90;;;;;;5113647;28;19919;-73
2022/10/20 11:50:48;;;;;;;;;;;12.90;99.90;;;;;;5114579;28;19920;-73
2022/10/20 11:53:17;;;;;;;;;;;12.80;99.90;;;;;;5114388;28;19926;-72
2022/10/20 11:55:49;;;;;;;;;;;13.00;99.90;;;;;;5114362;27;19920;-73
2022/10/20 11:58:20;;;;;;;;;;;12.80;99.90;;;;;;5094782;28;20282;-72
2022/10/20 12:01:05;;;;;;;;;;;12.80;99.90;;;;;;5095137;28;19924;-72
2022/10/20 12:03:49;;;;;;;;;;;12.80;99.90;;;;;;5090737;28;19958;-71
2022/10/20 12:06:24;;;;;;;;;;;12.80;99.90;;;;;;5093347;28;20371;-73
2022/10/20 12:08:52;;;;;;;;;;;12.70;99.90;;;;;;5113231;28;19919;-74
2022/10/20 12:11:32;;;;;;;;;;;12.70;99.90;;;;;;5113931;28;19920;-75
2022/10/20 12:14:16;;;;;;;;;;;12.80;99.90;;;;;;5095686;28;19919;-71
2022/10/20 12:16:51;;;;;;;;;;;12.60;99.90;;;;;;5110826;28;19923;-70
2022/10/20 12:19:19;;;;;;;;;;;12.60;99.90;;;;;;5113653;28;19919;-72
2022/10/20 12:22:03;;;;;;;;;;;12.50;99.90;;;;;;5093818;28;19966;-72
2022/10/20 12:24:39;;;;;;;;;;;12.50;99.90;;;;;;5090904;28;20497;-73
2022/10/20 12:27:08;;;;;;;;;;;12.50;99.90;;;;;;5095690;28;20015;-73
2022/10/20 12:29:33;;;;;;;;;;;12.60;99.90;;;;;;5093313;28;20260;-73
2022/10/20 12:32:20;;;;;;;;;;;12.50;99.90;;;;;;5093862;28;20410;-73
2022/10/20 12:34:50;;;;;;;;;;;12.40;99.90;;;;;;5110643;28;19928;-73
2022/10/20 12:37:28;;;;;;;;;;;12.40;99.90;;;;;;5096925;27;19972;-74
2022/10/20 12:39:55;;;;;;;;;;;12.40;99.90;;;;;;5092374;28;19919;-73
2022/10/20 12:42:23;;;;;;;;;;;12.30;99.90;;;;;;5093870;28;19920;-73
2022/10/20 12:44:49;;;;;;;;;;;12.10;99.90;;;;;;5093166;28;19953;-74
2022/10/20 12:47:18;;;;;;;;;;;12.00;99.90;;;;;;5094285;28;19927;-74
2022/10/20 12:49:51;;;;;;;;;;;12.00;99.90;;;;;;5113290;28;20320;-74
2022/10/20 12:52:19;;;;;;;;;;;11.90;99.90;;;;;;5111830;28;19932;-75
2022/10/20 12:54:45;;;;;;;;;;;11.90;99.90;;;;;;5094568;28;20003;-74
2022/10/20 12:57:30;;;;;;;;;;;11.90;99.90;;;;;;5112507;28;20001;-73
2022/10/20 12:59:55;;;;;;;;;;;11.90;99.90;;;;;;5091746;28;20291;-73
2022/10/20 13:02:21;;;;;;;;;;;11.80;99.90;;;;;;5094841;28;19920;-73
2022/10/20 13:04:57;;;;;;;;;;;11.80;99.90;;;;;;5115830;28;19920;-74
2022/10/20 13:07:44;;;;;;;;;;;11.70;99.90;;;;;;5110604;28;19919;-74
2022/10/20 13:10:25;;;;;;;;;;;11.60;99.90;;;;;;5116762;28;19927;-74
2022/10/20 13:12:51;;;;;;;;;;;11.70;99.90;;;;;;5093611;28;19919;-75
2022/10/20 13:15:18;;;;;;;;;;;11.50;99.90;;;;;;5114223;28;19926;-75
2022/10/20 13:17:50;;;;;;;;;;;11.50;99.90;;;;;;5115032;28;19928;-71
2022/10/20 13:20:34;;;;;;;;;;;11.90;99.90;;;;;;5097883;27;19920;-72
2022/10/20 13:23:00;;;;;;;;;;;11.50;99.90;;;;;;5093676;28;19965;-73
2022/10/20 13:25:28;;;;;;;;;;;11.60;99.90;;;;;;5097897;28;20001;-74
2022/10/20 13:28:01;;;;;;;;;;;11.50;99.90;;;;;;5101602;28;19927;-70
2022/10/20 13:30:28;;;;;;;;;;;11.60;99.90;;;;;;5098071;28;19964;-70
2022/10/20 13:33:00;;;;;;;;;;;11.60;99.90;;;;;;5114666;27;19926;-68
2022/10/20 13:35:39;;;;;;;;;;;11.50;99.90;;;;;;5112075;28;19927;-71
2022/10/20 13:38:12;;;;;;;;;;;11.50;99.90;;;;;;5094414;28;20415;-71
2022/10/20 13:40:49;;;;;;;;;;;11.50;99.90;;;;;;5093229;28;19978;-73
2022/10/20 13:43:15;;;;;;;;;;;11.50;99.90;;;;;;5108137;28;19920;-72
2022/10/20 13:45:59;;;;;;;;;;;11.50;99.90;;;;;;5094062;28;19919;-71
2022/10/20 13:48:39;;;;;;;;;;;11.40;99.90;;;;;;5090854;28;19927;-71
2022/10/20 13:51:10;;;;;;;;;;;11.40;99.90;;;;;;5094596;28;19920;-72
2022/10/20 13:53:37;;;;;;;;;;;11.50;99.90;;;;;;5092656;28;19920;-73
2022/10/20 13:56:05;;;;;;;;;;;11.40;99.90;;;;;;5112765;28;19973;-71
2022/10/20 13:58:32;;;;;;;;;;;11.40;99.90;;;;;;5112004;28;20014;-71
2022/10/20 14:01:04;;;;;;;;;;;11.40;99.90;;;;;;5111816;28;19966;-70
2022/10/20 14:03:35;;;;;;;;;;;11.40;99.90;;;;;;5112038;28;19919;-72
2022/10/20 14:06:00;;;;;;;;;;;11.40;99.90;;;;;;5112322;28;20287;-72
2022/10/20 14:08:26;;;;;;;;;;;11.50;99.90;;;;;;5093006;28;19929;-71
2022/10/20 14:10:51;;;;;;;;;;;11.50;99.90;;;;;;5112108;28;19916;-76
2022/10/20 14:13:22;;;;;;;;;;;11.50;99.90;;;;;;5111957;28;19978;-71
2022/10/20 14:15:49;;;;;;;;;;;11.50;99.90;;;;;;5111530;28;19927;-72
2022/10/20 14:18:22;;;;;;;;;;;11.50;99.90;;;;;;5093685;28;19920;-71
2022/10/20 14:21:09;;;;;;;;;;;11.50;99.90;;;;;;5094267;28;19926;-71
2022/10/20 14:23:42;;;;;;;;;;;11.50;99.90;;;;;;5093085;28;19941;-71
2022/10/20 14:26:20;;;;;;;;;;;11.50;99.90;;;;;;5111792;28;19931;-72
2022/10/20 14:28:49;;;;;;;;;;;11.50;99.90;;;;;;5092972;28;20456;-71
2022/10/20 14:31:15;;;;;;;;;;;11.50;99.90;;;;;;5112250;28;19951;-76
2022/10/20 14:33:42;;;;;;;;;;;11.50;99.90;;;;;;5093138;28;19965;-72
2022/10/20 14:36:16;;;;;;;;;;;11.90;99.90;;;;;;5092831;28;19968;-72